createdAt,value
2023-05-03T00:02:21.451Z,2.180602006688963
2023-05-03T00:10:23.901Z,0.5618729096989966
2023-05-03T00:16:45.027Z,1.2842809364548495
2023-05-03T00:23:05.199Z,1.5451505016722409
2023-05-03T00:29:24.476Z,1.6622073578595318
2023-05-03T00:37:00.523Z,2.2474916387959865
2023-05-03T00:43:21.613Z,1.8494983277591974
2023-05-03T00:49:41.170Z,1.7558528428093645
2023-05-03T00:56:01.302Z,1.7725752508361203
2023-05-03T01:02:21.663Z,2.0
2023-05-03T01:08:42.002Z,1.157190635451505
2023-05-03T01:15:01.639Z,2.1070234113712374
2023-05-03T01:21:23.689Z,1.451505016722408
2023-05-03T01:27:43.537Z,1.1906354515050168
2023-05-03T01:34:03.831Z,1.2508361204013378
2023-05-03T01:40:23.938Z,1.6755852842809364
2023-05-03T01:46:44.032Z,1.7224080267558528
2023-05-03T01:53:05.665Z,1.3210702341137124
2023-05-03T02:02:58.520Z,1.4983277591973243
2023-05-03T02:09:19.491Z,2.321070234113712
2023-05-03T02:16:42.507Z,1.568561872909699
2023-05-03T02:23:44.157Z,1.9698996655518395
2023-05-03T02:30:04.493Z,3.879598662207358
2023-05-03T02:40:14.247Z,4.117056856187291
2023-05-03T02:46:33.057Z,3.8528428093645486
2023-05-03T02:52:52.312Z,3.471571906354515
2023-05-03T02:59:12.864Z,3.317725752508361
2023-05-03T03:05:33.002Z,3.9933110367892977
2023-05-03T03:11:52.846Z,2.7926421404682276
2023-05-03T03:18:12.001Z,1.451505016722408
2023-05-03T03:24:31.157Z,2.765886287625418
2023-05-03T03:30:51.615Z,2.448160535117057
2023-05-03T03:40:09.188Z,1.882943143812709
2023-05-03T03:46:28.356Z,1.9063545150501673
2023-05-03T03:52:47.337Z,3.4949832775919734
2023-05-03T03:59:08.728Z,1.7993311036789297
2023-05-03T04:05:29.360Z,2.0133779264214047
2023-05-03T04:19:58.552Z,2.6588628762541804
2023-05-03T04:26:31.124Z,1.9565217391304348
2023-05-03T04:43:43.591Z,2.250836120401338
2023-05-03T04:50:06.047Z,1.5451505016722409
2023-05-03T04:58:49.324Z,2.1471571906354514
2023-05-03T05:05:12.465Z,1.4280936454849498
2023-05-03T05:11:33.828Z,1.8227424749163879
2023-05-03T05:17:54.918Z,1.4381270903010033
2023-05-03T05:24:16.238Z,2.2876254180602005
2023-05-03T05:31:02.633Z,1.8327759197324414
2023-05-03T05:38:17.261Z,2.0903010033444818
2023-05-03T05:44:38.141Z,1.8929765886287626
2023-05-03T05:51:00.132Z,2.3377926421404682
2023-05-03T05:57:22.078Z,2.1070234113712374
2023-05-03T06:03:43.252Z,1.7391304347826086
2023-05-03T06:15:52.963Z,2.9297658862876252
2023-05-03T06:22:14.418Z,3.862876254180602
2023-05-03T06:28:36.157Z,3.040133779264214
2023-05-03T06:34:59.381Z,2.2876254180602005
2023-05-03T06:41:21.171Z,2.5551839464882944
2023-05-03T06:49:50.152Z,2.274247491638796
2023-05-03T06:56:11.434Z,1.8896321070234114
2023-05-03T07:02:33.225Z,1.605351170568562
2023-05-03T07:08:54.753Z,1.2909698996655519
2023-05-03T07:27:25.197Z,0.7993311036789298
2023-05-03T07:34:38.608Z,1.3645484949832776
2023-05-03T07:40:59.600Z,1.565217391304348
2023-05-03T07:47:20.467Z,0.9832775919732442
2023-05-03T07:53:41.066Z,0.8561872909698997
2023-05-03T08:02:01.308Z,1.1672240802675586
2023-05-03T08:08:22.654Z,1.117056856187291
2023-05-03T08:15:55.047Z,1.0133779264214047
2023-05-03T08:22:15.689Z,1.3110367892976589
2023-05-03T08:28:35.421Z,1.6153846153846154
2023-05-03T08:34:54.577Z,0.9565217391304348
2023-05-03T08:41:14.613Z,1.6789297658862876
2023-05-03T08:49:35.654Z,0.7558528428093646
2023-05-03T08:57:03.859Z,0.5418060200668896
2023-05-03T09:03:23.747Z,1.2374581939799332
2023-05-03T09:09:45.576Z,0.6889632107023411
2023-05-03T09:16:07.496Z,1.3177257525083612
2023-05-03T09:22:27.577Z,0.5418060200668896
2023-05-03T09:28:47.734Z,0.4214046822742475
2023-05-03T09:35:07.691Z,0.4816053511705686
2023-05-03T09:41:29.520Z,1.1337792642140467
2023-05-03T09:47:49.595Z,1.608695652173913
2023-05-03T09:54:10.285Z,1.374581939799331
2023-05-03T10:00:30.299Z,0.5284280936454849
2023-05-03T10:11:08.050Z,0.8093645484949833
2023-05-03T10:17:43.624Z,0.7558528428093646
2023-05-03T10:24:08.077Z,0.959866220735786
2023-05-03T10:30:28.334Z,1.0468227424749164
2023-05-03T10:40:03.205Z,0.882943143812709
2023-05-03T10:46:23.001Z,1.431438127090301
2023-05-03T10:52:43.163Z,1.5451505016722409
2023-05-03T11:01:58.101Z,0.3745819397993311
2023-05-03T11:08:18.386Z,0.68561872909699
2023-05-03T11:16:48.017Z,0.8160535117056856
2023-05-03T11:28:37.317Z,1.2642140468227425
2023-05-03T11:34:57.000Z,0.919732441471572
2023-05-03T11:41:17.012Z,0.9498327759197325
2023-05-03T11:47:37.975Z,0.46153846153846156
2023-05-03T11:54:01.335Z,1.2876254180602007
2023-05-03T12:19:50.703Z,0.8729096989966555
2023-05-03T12:29:23.837Z,0.44816053511705684
2023-05-03T12:41:08.976Z,0.862876254180602
2023-05-03T12:47:29.673Z,1.0668896321070234
2023-05-03T12:53:54.551Z,0.8160535117056856
2023-05-03T13:00:24.330Z,0.862876254180602
2023-05-03T13:06:47.772Z,0.9832775919732442
2023-05-03T13:13:09.485Z,0.35451505016722407
2023-05-03T13:20:21.927Z,0.9565217391304348
2023-05-03T13:26:42.240Z,1.8862876254180603
2023-05-03T13:33:03.626Z,1.5117056856187292
2023-05-03T13:39:24.212Z,1.080267558528428
2023-05-03T13:45:44.765Z,1.6421404682274248
2023-05-03T13:55:48.678Z,0.2608695652173913
2023-05-03T14:02:11.275Z,1.120401337792642
2023-05-03T14:08:35.630Z,1.354515050167224
2023-05-03T14:14:59.051Z,0.7157190635451505
2023-05-03T14:25:23.146Z,1.2642140468227425
2023-05-03T14:35:56.966Z,0.6488294314381271
2023-05-03T14:42:18.283Z,0.9866220735785953
2023-05-03T14:48:45.499Z,1.2408026755852843
2023-05-03T14:55:09.238Z,0.8762541806020067
2023-05-03T15:01:53.403Z,1.6187290969899666
2023-05-03T15:09:53.240Z,0.8963210702341137
2023-05-03T15:16:14.695Z,1.374581939799331
2023-05-03T15:22:36.854Z,0.9264214046822743
2023-05-03T15:28:58.605Z,0.7357859531772575
2023-05-03T15:35:26.397Z,1.5016722408026757
2023-05-03T15:41:51.013Z,1.117056856187291
2023-05-03T15:48:12.467Z,0.9832775919732442
2023-05-03T15:54:35.127Z,1.254180602006689
2023-05-03T16:03:41.565Z,1.8695652173913044
2023-05-03T16:10:03.118Z,2.0869565217391304
2023-05-03T16:16:23.417Z,2.3645484949832776
2023-05-03T16:24:23.044Z,0.6822742474916388
2023-05-03T16:34:11.669Z,0.9899665551839465
2023-05-03T16:40:32.232Z,0.7123745819397993
2023-05-03T17:00:32.918Z,1.431438127090301
2023-05-03T17:06:52.537Z,1.585284280936455
2023-05-03T17:18:51.049Z,1.0869565217391304
2023-05-03T17:25:12.014Z,0.9163879598662207
2023-05-03T17:42:31.319Z,1.8862876254180603
2023-05-03T17:49:01.944Z,1.6387959866220736
2023-05-03T17:55:21.369Z,1.7759197324414715
2023-05-03T18:06:13.709Z,1.0869565217391304
2023-05-03T18:13:49.382Z,0.7692307692307693
2023-05-03T18:22:12.620Z,2.17056856187291
2023-05-03T18:30:13.611Z,2.331103678929766
2023-05-03T18:37:32.193Z,1.765886287625418
2023-05-03T18:54:20.096Z,1.3177257525083612
2023-05-03T19:00:40.920Z,2.6020066889632107
2023-05-03T19:07:10.677Z,1.9765886287625418
2023-05-03T19:13:30.915Z,1.4046822742474916
2023-05-03T19:19:52.459Z,2.4247491638795986
2023-05-03T19:26:16.262Z,3.5050167224080266
2023-05-03T19:32:49.566Z,1.5451505016722409
2023-05-03T19:42:02.059Z,1.157190635451505
2023-05-03T19:48:27.166Z,1.842809364548495
2023-05-03T20:01:49.605Z,1.2508361204013378
2023-05-03T20:08:21.105Z,1.8963210702341138
2023-05-03T20:15:08.629Z,1.6889632107023411
2023-05-03T20:21:35.323Z,1.7090301003344481
2023-05-03T20:31:07.234Z,1.6956521739130435
2023-05-03T20:40:54.862Z,0.8762541806020067
2023-05-03T20:47:23.037Z,1.8929765886287626
2023-05-03T20:53:49.175Z,2.448160535117057
2023-05-03T21:00:13.436Z,1.2575250836120402
2023-05-03T21:08:50.008Z,1.5719063545150502
2023-05-03T21:15:12.657Z,1.9364548494983278
2023-05-03T21:21:38.816Z,2.0501672240802677
2023-05-03T21:29:23.582Z,2.217391304347826
2023-05-03T21:42:57.826Z,2.260869565217391
2023-05-03T21:49:20.279Z,2.140468227424749
2023-05-03T21:55:42.133Z,2.5250836120401337
2023-05-03T22:02:08.978Z,1.7892976588628762
2023-05-03T22:10:44.484Z,2.4749163879598663
2023-05-03T22:17:07.555Z,2.6923076923076925
2023-05-03T22:23:31.083Z,8.68561872909699
2023-05-03T22:29:51.737Z,7.237458193979933
2023-05-03T22:36:13.368Z,2.749163879598662
2023-05-03T22:42:35.537Z,2.367892976588629
2023-05-03T22:53:28.069Z,1.7491638795986622
2023-05-03T22:59:52.660Z,1.37123745819398
2023-05-03T23:06:16.199Z,2.230769230769231
2023-05-03T23:12:37.837Z,2.488294314381271
2023-05-03T23:19:01.153Z,3.297658862876254
2023-05-03T23:25:23.058Z,5.474916387959866
2023-05-03T23:36:07.849Z,2.963210702341137
2023-05-03T23:42:27.800Z,3.57190635451505
2023-05-03T23:48:51.817Z,2.939799331103679
2023-05-03T23:55:13.656Z,3.4983277591973243
